createdAt,value
2022-11-06T00:00:17.309Z,4.05
2022-11-06T00:02:44.516Z,4.35
2022-11-06T00:05:30.335Z,4.30
2022-11-06T00:07:57.070Z,4.70
2022-11-06T00:10:23.862Z,4.10
2022-11-06T00:12:50.858Z,4.22
2022-11-06T00:15:17.622Z,4.40
2022-11-06T00:17:44.351Z,3.95
2022-11-06T00:20:11.388Z,3.90
2022-11-06T00:22:38.357Z,4.00
2022-11-06T00:25:07.173Z,4.28
2022-11-06T00:27:37.257Z,4.38
2022-11-06T00:30:05.862Z,5.00
2022-11-06T00:32:32.707Z,4.10
2022-11-06T00:34:59.409Z,4.10
2022-11-06T00:37:26.118Z,4.53
2022-11-06T00:39:52.784Z,3.60
2022-11-06T00:42:20.680Z,4.97
2022-11-06T00:44:47.357Z,4.05
2022-11-06T00:47:14.093Z,3.78
2022-11-06T00:49:40.843Z,3.83
2022-11-06T00:52:07.615Z,4.15
2022-11-06T00:54:34.323Z,4.60
2022-11-06T00:57:01.057Z,4.70
2022-11-06T00:59:27.779Z,3.72
2022-11-06T01:01:54.646Z,4.60
2022-11-06T01:04:23.323Z,4.55
2022-11-06T01:06:53.332Z,4.75
2022-11-06T01:09:23.584Z,4.75
2022-11-06T01:12:12.826Z,4.43
2022-11-06T01:14:40.237Z,4.70
2022-11-06T01:17:07.092Z,4.95
2022-11-06T01:19:33.760Z,4.40
2022-11-06T01:22:00.720Z,4.50
2022-11-06T01:24:28.762Z,4.35
2022-11-06T01:27:25.080Z,4.55
2022-11-06T01:29:43.017Z,4.15
2022-11-06T01:32:10.105Z,4.57
2022-11-06T01:34:36.821Z,4.90
2022-11-06T01:37:03.676Z,4.78
2022-11-06T01:39:30.537Z,5.05
2022-11-06T01:41:57.363Z,4.60
2022-11-06T01:44:36.085Z,4.68
2022-11-06T01:47:04.897Z,4.88
2022-11-06T01:49:34.884Z,4.38
2022-11-06T01:52:05.836Z,4.35
2022-11-06T01:54:34.727Z,5.13
2022-11-06T01:57:01.582Z,4.60
2022-11-06T01:59:30.474Z,4.40
2022-11-06T02:01:57.106Z,4.00
2022-11-06T02:04:30.337Z,3.78
2022-11-06T02:06:57.428Z,4.22
2022-11-06T02:09:24.409Z,4.45
2022-11-06T02:11:59.441Z,4.50
2022-11-06T02:14:36.930Z,3.83
2022-11-06T02:17:10.234Z,3.58
2022-11-06T02:19:52.735Z,3.95
2022-11-06T02:22:32.100Z,3.83
2022-11-06T02:25:14.304Z,3.75
2022-11-06T02:27:45.740Z,3.40
2022-11-06T02:30:14.249Z,3.53
2022-11-06T02:32:57.089Z,3.90
2022-11-06T02:35:25.292Z,3.80
2022-11-06T02:37:56.177Z,3.65
2022-11-06T02:40:26.122Z,3.22
2022-11-06T02:42:54.227Z,3.22
2022-11-06T02:45:22.093Z,3.47
2022-11-06T02:47:54.315Z,3.17
2022-11-06T02:50:43.235Z,3.80
2022-11-06T02:53:12.223Z,3.50
2022-11-06T02:55:42.262Z,3.15
2022-11-06T02:58:21.632Z,3.72
2022-11-06T03:00:53.490Z,3.15
2022-11-06T03:03:32.354Z,3.03
2022-11-06T03:06:11.433Z,3.33
2022-11-06T03:08:49.984Z,3.58
2022-11-06T03:11:23.159Z,3.03
2022-11-06T03:13:58.955Z,3.10
2022-11-06T03:16:41.288Z,3.42
2022-11-06T03:19:15.276Z,3.50
2022-11-06T03:22:04.773Z,3.22
2022-11-06T03:24:42.062Z,2.88
2022-11-06T03:27:34.512Z,3.42
2022-11-06T03:30:07.216Z,3.15
2022-11-06T03:32:36.610Z,3.00
2022-11-06T03:35:09.331Z,3.63
2022-11-06T03:37:52.096Z,2.67
2022-11-06T03:40:20.779Z,3.20
2022-11-06T03:42:48.377Z,2.85
2022-11-06T03:45:19.162Z,2.78
2022-11-06T03:48:09.916Z,2.97
2022-11-06T03:50:44.033Z,2.58
2022-11-06T03:53:47.185Z,2.55
2022-11-06T03:56:25.747Z,3.05
2022-11-06T03:58:54.167Z,2.40
2022-11-06T04:01:26.215Z,3.03
2022-11-06T04:04:02.910Z,2.50
2022-11-06T04:06:40.298Z,2.97
2022-11-06T04:09:28.295Z,2.83
2022-11-06T04:12:15.585Z,2.55
2022-11-06T04:14:43.244Z,2.25
2022-11-06T04:17:12.434Z,2.75
2022-11-06T04:19:43.501Z,2.50
2022-11-06T04:22:38.168Z,2.53
2022-11-06T04:25:41.812Z,2.67
2022-11-06T04:28:50.348Z,2.63
2022-11-06T04:31:34.761Z,2.53
2022-11-06T04:34:14.695Z,3.05
2022-11-06T04:36:48.530Z,3.15
2022-11-06T04:39:34.755Z,3.17
2022-11-06T04:42:03.238Z,2.90
2022-11-06T04:44:33.410Z,3.17
2022-11-06T04:47:06.463Z,3.60
2022-11-06T04:49:35.720Z,2.58
2022-11-06T04:52:04.681Z,3.50
2022-11-06T04:54:31.839Z,3.42
2022-11-06T04:57:02.237Z,3.05
2022-11-06T04:59:31.025Z,3.28
2022-11-06T05:01:57.600Z,2.75
2022-11-06T05:04:24.194Z,2.78
2022-11-06T05:06:50.789Z,3.22
2022-11-06T05:09:17.381Z,2.90
2022-11-06T05:11:44.105Z,3.70
2022-11-06T05:14:10.683Z,3.05
2022-11-06T05:16:37.264Z,3.15
2022-11-06T05:19:04.244Z,3.63
2022-11-06T05:21:49.679Z,4.18
2022-11-06T05:24:16.200Z,3.42
2022-11-06T05:26:42.754Z,3.53
2022-11-06T05:29:09.314Z,4.40
2022-11-06T05:31:35.786Z,3.53
2022-11-06T05:34:02.352Z,3.25
2022-11-06T05:36:28.895Z,2.90
2022-11-06T05:38:55.428Z,3.17
2022-11-06T05:41:22.053Z,3.33
2022-11-06T05:43:48.653Z,3.00
2022-11-06T05:46:42.282Z,3.03
2022-11-06T05:49:01.636Z,3.28
2022-11-06T05:51:28.112Z,3.47
2022-11-06T05:53:55.220Z,3.50
2022-11-06T05:56:21.721Z,2.58
2022-11-06T05:58:48.162Z,3.00
2022-11-06T06:01:14.975Z,3.60
2022-11-06T06:03:41.562Z,3.30
2022-11-06T06:06:08.087Z,3.25
2022-11-06T06:08:34.595Z,2.85
2022-11-06T06:11:01.199Z,2.92
2022-11-06T06:13:27.716Z,2.50
2022-11-06T06:15:54.182Z,3.67
2022-11-06T06:18:20.637Z,3.22
2022-11-06T06:20:47.249Z,3.55
2022-11-06T06:23:13.716Z,3.00
2022-11-06T06:25:40.181Z,3.35
2022-11-06T06:28:06.732Z,3.20
2022-11-06T06:30:34.086Z,3.03
2022-11-06T06:33:05.145Z,3.10
2022-11-06T06:35:31.818Z,3.20
2022-11-06T06:37:58.325Z,3.30
2022-11-06T06:40:24.960Z,3.25
2022-11-06T06:42:51.412Z,2.88
2022-11-06T06:45:17.876Z,3.10
2022-11-06T06:47:44.326Z,3.80
2022-11-06T06:50:10.852Z,3.00
2022-11-06T06:52:37.440Z,3.42
2022-11-06T06:55:04.897Z,3.22
2022-11-06T06:57:31.435Z,3.13
2022-11-06T06:59:57.992Z,3.33
2022-11-06T07:02:24.710Z,3.10
2022-11-06T07:04:51.293Z,2.50
2022-11-06T07:07:17.837Z,3.45
2022-11-06T07:09:44.321Z,3.20
2022-11-06T07:12:10.813Z,3.03
2022-11-06T07:14:37.557Z,2.85
2022-11-06T07:17:04.511Z,3.45
2022-11-06T07:19:30.996Z,2.92
2022-11-06T07:21:57.568Z,2.92
2022-11-06T07:24:24.063Z,2.80
2022-11-06T07:26:50.651Z,2.85
2022-11-06T07:29:17.221Z,3.00
2022-11-06T07:31:43.754Z,2.75
2022-11-06T07:34:10.336Z,2.55
2022-11-06T07:36:36.927Z,2.15
2022-11-06T07:39:04.615Z,2.20
2022-11-06T07:41:31.381Z,2.28
2022-11-06T07:43:58.508Z,2.53
2022-11-06T07:46:27.302Z,2.40
2022-11-06T07:48:54.704Z,2.60
2022-11-06T07:51:21.214Z,2.30
2022-11-06T07:53:47.838Z,2.65
2022-11-06T07:56:14.336Z,2.70
2022-11-06T07:58:40.849Z,2.78
2022-11-06T08:01:18.264Z,2.50
2022-11-06T08:03:45.887Z,1.77
2022-11-06T08:06:12.724Z,2.05
2022-11-06T08:08:39.380Z,2.13
2022-11-06T08:11:08.789Z,2.10
2022-11-06T08:13:35.517Z,2.33
2022-11-06T08:16:06.968Z,2.60
2022-11-06T08:18:34.035Z,2.90
2022-11-06T08:21:00.640Z,2.35
2022-11-06T08:23:27.932Z,2.50
2022-11-06T08:25:56.188Z,2.55
2022-11-06T08:28:23.653Z,1.88
2022-11-06T08:30:50.289Z,2.10
2022-11-06T08:33:16.800Z,2.15
2022-11-06T08:35:43.345Z,2.55
2022-11-06T08:38:09.942Z,2.53
2022-11-06T08:40:38.409Z,2.85
2022-11-06T08:43:07.839Z,1.88
2022-11-06T08:45:42.003Z,2.55
2022-11-06T08:48:09.551Z,2.25
2022-11-06T08:50:38.009Z,2.35
2022-11-06T08:53:06.564Z,2.40
2022-11-06T08:55:35.485Z,2.50
2022-11-06T08:58:02.135Z,2.75
2022-11-06T09:00:29.015Z,1.98
2022-11-06T09:03:04.514Z,2.10
2022-11-06T09:05:31.652Z,2.33
2022-11-06T09:07:59.247Z,2.40
2022-11-06T09:10:27.032Z,2.20
2022-11-06T09:12:53.677Z,2.03
2022-11-06T09:15:20.310Z,2.38
2022-11-06T09:17:49.476Z,1.90
2022-11-06T09:20:18.927Z,2.35
2022-11-06T09:22:46.346Z,2.00
2022-11-06T09:25:13.448Z,2.50
2022-11-06T09:27:58.855Z,2.38
2022-11-06T09:30:28.479Z,2.53
2022-11-06T09:32:58.083Z,2.20
2022-11-06T09:35:25.941Z,2.33
2022-11-06T09:37:52.498Z,2.25
2022-11-06T09:40:21.954Z,2.08
2022-11-06T09:43:16.271Z,1.90
2022-11-06T09:45:43.342Z,2.25
2022-11-06T09:48:17.870Z,2.17
2022-11-06T09:51:24.775Z,2.30
2022-11-06T09:53:57.415Z,2.00
2022-11-06T09:56:25.722Z,2.33
2022-11-06T09:58:53.036Z,2.10
2022-11-06T10:01:26.880Z,2.80
2022-11-06T10:03:59.362Z,2.53
2022-11-06T10:06:26.514Z,2.88
2022-11-06T10:08:56.466Z,2.00
2022-11-06T10:11:34.643Z,3.08
2022-11-06T10:14:13.392Z,2.42
2022-11-06T10:16:50.585Z,2.58
2022-11-06T10:19:35.690Z,2.47
2022-11-06T10:22:08.256Z,2.53
2022-11-06T10:24:49.992Z,2.60
2022-11-06T10:27:27.541Z,2.47
2022-11-06T10:30:09.397Z,2.55
2022-11-06T10:32:52.897Z,2.35
2022-11-06T10:35:26.399Z,2.60
2022-11-06T10:38:11.864Z,3.38
2022-11-06T10:40:39.324Z,2.13
2022-11-06T10:43:27.695Z,3.05
2022-11-06T10:46:10.750Z,2.60
2022-11-06T10:48:45.175Z,2.80
2022-11-06T10:51:46.499Z,2.63
2022-11-06T10:54:31.452Z,2.72
2022-11-06T10:57:16.837Z,3.00
2022-11-06T10:59:43.353Z,2.55
2022-11-06T11:02:34.551Z,2.58
2022-11-06T11:05:01.200Z,3.05
2022-11-06T11:07:32.004Z,2.80
2022-11-06T11:09:58.742Z,2.65
2022-11-06T11:12:29.583Z,2.40
2022-11-06T11:15:05.235Z,3.35
2022-11-06T11:17:31.881Z,3.20
2022-11-06T11:19:58.419Z,2.13
2022-11-06T11:22:30.393Z,2.80
2022-11-06T11:25:05.408Z,3.03
2022-11-06T11:27:53.730Z,2.63
2022-11-06T11:30:22.881Z,3.40
2022-11-06T11:32:50.165Z,2.80
2022-11-06T11:35:19.972Z,3.63
2022-11-06T11:37:46.775Z,3.00
2022-11-06T11:40:36.350Z,2.60
2022-11-06T11:43:30.407Z,3.10
2022-11-06T11:46:03.874Z,2.85
2022-11-06T11:48:48.122Z,2.75
2022-11-06T11:51:32.559Z,2.45
2022-11-06T11:54:05.234Z,3.20
2022-11-06T11:57:02.410Z,3.00
2022-11-06T11:59:21.355Z,3.00
2022-11-06T12:01:48.422Z,2.47
2022-11-06T12:04:21.359Z,2.58
2022-11-06T12:06:54.632Z,2.35
2022-11-06T12:09:21.925Z,2.35
2022-11-06T12:11:48.561Z,2.78
2022-11-06T12:14:21.056Z,2.70
2022-11-06T12:16:52.560Z,2.75
2022-11-06T12:19:20.650Z,2.55
2022-11-06T12:21:51.892Z,2.67
2022-11-06T12:24:25.844Z,2.53
2022-11-06T12:26:59.838Z,2.75
2022-11-06T12:29:33.854Z,2.67
2022-11-06T12:32:21.684Z,2.70
2022-11-06T12:34:58.731Z,2.90
2022-11-06T12:37:41.025Z,2.58
2022-11-06T12:40:25.059Z,2.30
2022-11-06T12:43:04.060Z,2.65
2022-11-06T12:45:38.190Z,2.70
2022-11-06T12:48:17.145Z,2.90
2022-11-06T12:50:56.227Z,3.33
2022-11-06T12:53:38.084Z,3.00
2022-11-06T12:56:15.758Z,2.90
2022-11-06T12:59:05.489Z,2.47
2022-11-06T13:01:37.836Z,2.70
2022-11-06T13:04:35.229Z,2.92
2022-11-06T13:07:24.818Z,2.90
2022-11-06T13:09:57.515Z,2.45
2022-11-06T13:12:26.822Z,2.85
2022-11-06T13:15:12.048Z,2.85
2022-11-06T13:17:47.866Z,2.60
2022-11-06T13:20:18.893Z,2.75
2022-11-06T13:22:51.812Z,2.45
2022-11-06T13:25:26.204Z,2.92
2022-11-06T13:28:19.486Z,2.97
2022-11-06T13:30:46.258Z,2.83
2022-11-06T13:33:23.801Z,2.83
2022-11-06T13:35:50.664Z,2.80
2022-11-06T13:38:22.584Z,3.20
2022-11-06T13:40:59.343Z,2.53
2022-11-06T13:43:39.332Z,2.80
2022-11-06T13:46:21.828Z,2.95
2022-11-06T13:49:01.567Z,3.00
2022-11-06T13:51:58.771Z,2.83
2022-11-06T13:55:02.649Z,2.47
2022-11-06T13:58:01.302Z,2.67
2022-11-06T14:00:54.390Z,3.53
2022-11-06T14:03:51.446Z,2.95
2022-11-06T14:06:26.067Z,2.80
2022-11-06T14:08:55.406Z,2.67
2022-11-06T14:11:33.058Z,2.20
2022-11-06T14:14:26.379Z,2.95
2022-11-06T14:17:18.126Z,2.30
2022-11-06T14:19:51.090Z,2.35
2022-11-06T14:22:25.100Z,2.60
2022-11-06T14:24:53.827Z,2.63
2022-11-06T14:27:23.549Z,2.30
2022-11-06T14:30:00.429Z,2.28
2022-11-06T14:32:30.041Z,2.45
2022-11-06T14:34:56.893Z,2.35
2022-11-06T14:37:30.799Z,2.40
2022-11-06T14:39:57.719Z,2.80
2022-11-06T14:42:27.422Z,2.25
2022-11-06T14:44:58.857Z,1.92
2022-11-06T14:47:26.573Z,2.20
2022-11-06T14:49:54.363Z,2.25
2022-11-06T14:52:24.300Z,2.40
2022-11-06T14:55:02.043Z,1.98
2022-11-06T14:57:52.087Z,2.83
2022-11-06T15:00:38.480Z,1.92
2022-11-06T15:03:19.353Z,2.53
2022-11-06T15:05:51.944Z,2.15
2022-11-06T15:08:47.005Z,2.20
2022-11-06T15:11:49.791Z,2.30
2022-11-06T15:14:16.195Z,2.30
2022-11-06T15:16:50.606Z,2.75
2022-11-06T15:19:22.940Z,2.50
2022-11-06T15:22:05.079Z,2.20
2022-11-06T15:24:34.491Z,2.38
2022-11-06T15:27:08.714Z,2.95
2022-11-06T15:29:38.098Z,3.03
2022-11-06T15:32:10.608Z,2.78
2022-11-06T15:34:39.257Z,2.63
2022-11-06T15:37:12.210Z,2.72
2022-11-06T15:40:00.525Z,3.30
2022-11-06T15:42:29.326Z,3.00
2022-11-06T15:45:09.179Z,2.78
2022-11-06T15:47:35.708Z,3.08
2022-11-06T15:50:32.077Z,3.28
2022-11-06T15:53:14.165Z,3.08
2022-11-06T15:55:59.146Z,3.50
2022-11-06T15:58:34.039Z,3.03
2022-11-06T16:01:02.292Z,3.00
2022-11-06T16:03:32.033Z,3.20
2022-11-06T16:06:01.608Z,3.17
2022-11-06T16:08:29.997Z,3.22
2022-11-06T16:10:57.563Z,3.03
2022-11-06T16:13:25.527Z,2.78
2022-11-06T16:15:55.941Z,3.47
2022-11-06T16:18:43.009Z,3.47
2022-11-06T16:21:21.272Z,2.80
2022-11-06T16:24:20.558Z,3.35
2022-11-06T16:26:49.518Z,3.78
2022-11-06T16:29:36.597Z,3.30
2022-11-06T16:32:25.188Z,3.78
2022-11-06T16:34:51.902Z,3.55
2022-11-06T16:37:18.324Z,3.63
2022-11-06T16:39:50.203Z,3.20
2022-11-06T16:42:25.189Z,3.15
2022-11-06T16:45:16.903Z,3.13
2022-11-06T16:47:43.768Z,2.95
2022-11-06T16:51:01.430Z,3.20
2022-11-06T16:53:30.320Z,3.50
2022-11-06T16:56:07.403Z,3.22
2022-11-06T16:58:46.138Z,3.38
2022-11-06T17:01:19.954Z,3.80
2022-11-06T17:03:48.687Z,3.53
2022-11-06T17:06:28.041Z,3.33
2022-11-06T17:09:23.507Z,3.58
2022-11-06T17:11:52.640Z,3.58
2022-11-06T17:14:20.239Z,3.40
2022-11-06T17:16:49.748Z,3.45
2022-11-06T17:19:20.985Z,4.32
2022-11-06T17:21:48.599Z,4.35
2022-11-06T17:27:01.616Z,2.88
2022-11-06T17:29:28.113Z,3.53
2022-11-06T17:31:55.694Z,3.50
2022-11-06T17:34:22.197Z,3.42
2022-11-06T17:36:48.678Z,3.97
2022-11-06T17:39:15.516Z,3.80
2022-11-06T17:41:42.034Z,3.70
2022-11-06T17:44:14.791Z,3.60
2022-11-06T17:46:43.328Z,3.03
2022-11-06T17:49:16.840Z,3.78
2022-11-06T17:51:50.632Z,3.90
2022-11-06T17:54:18.485Z,3.58
2022-11-06T17:56:45.030Z,3.35
2022-11-06T17:59:13.181Z,3.92
2022-11-06T18:01:40.382Z,3.70
2022-11-06T18:04:07.370Z,3.80
2022-11-06T18:06:33.942Z,3.63
2022-11-06T18:09:02.100Z,3.53
2022-11-06T18:11:29.137Z,2.95
2022-11-06T18:13:55.857Z,3.20
2022-11-06T18:16:24.996Z,3.70
2022-11-06T18:18:51.573Z,3.72
2022-11-06T18:21:18.128Z,3.70
2022-11-06T18:23:44.628Z,4.15
2022-11-06T18:26:11.346Z,4.45
2022-11-06T18:28:37.909Z,3.65
2022-11-06T18:31:04.456Z,3.85
2022-11-06T18:33:31.066Z,4.05
2022-11-06T18:36:06.242Z,3.80
2022-11-06T18:38:33.526Z,3.58
2022-11-06T18:41:06.843Z,3.80
2022-11-06T18:43:33.304Z,3.63
2022-11-06T18:46:04.072Z,3.67
2022-11-06T18:48:32.185Z,3.97
2022-11-06T18:51:06.375Z,3.78
2022-11-06T18:53:33.105Z,3.65
2022-11-06T18:55:59.784Z,4.10
2022-11-06T18:58:26.955Z,4.07
2022-11-06T19:00:59.000Z,3.72
2022-11-06T19:03:28.345Z,3.83
2022-11-06T19:05:54.948Z,4.20
2022-11-06T19:08:21.533Z,4.00
2022-11-06T19:10:48.277Z,3.60
2022-11-06T19:13:14.990Z,3.83
2022-11-06T19:15:42.894Z,3.50
2022-11-06T19:18:10.349Z,4.10
2022-11-06T19:20:43.278Z,3.78
2022-11-06T19:23:13.918Z,3.88
2022-11-06T19:25:41.906Z,3.72
2022-11-06T19:28:09.494Z,3.90
2022-11-06T19:30:36.611Z,4.13
2022-11-06T19:33:03.963Z,3.75
2022-11-06T19:35:31.767Z,3.75
2022-11-06T19:37:59.569Z,3.75
2022-11-06T19:40:27.645Z,3.50
2022-11-06T19:42:55.408Z,3.80
2022-11-06T19:45:22.134Z,3.85
2022-11-06T19:47:48.864Z,3.72
2022-11-06T19:50:15.659Z,3.63
2022-11-06T19:52:45.555Z,3.40
2022-11-06T19:55:26.493Z,4.13
2022-11-06T19:57:57.454Z,3.20
2022-11-06T20:00:24.259Z,3.80
2022-11-06T20:02:51.149Z,3.58
2022-11-06T20:05:18.286Z,3.63
2022-11-06T20:07:45.008Z,3.53
2022-11-06T20:10:11.842Z,3.15
2022-11-06T20:12:38.519Z,3.20
2022-11-06T20:15:05.754Z,4.07
2022-11-06T20:17:32.390Z,3.05
2022-11-06T20:19:59.062Z,3.40
2022-11-06T20:22:25.805Z,3.17
2022-11-06T20:24:52.507Z,3.13
2022-11-06T20:27:19.393Z,2.65
2022-11-06T20:29:46.105Z,2.90
2022-11-06T20:32:18.725Z,3.17
2022-11-06T20:34:47.236Z,2.70
2022-11-06T20:37:14.164Z,2.80
2022-11-06T20:39:43.676Z,2.65
2022-11-06T20:42:10.383Z,2.60
2022-11-06T20:44:37.148Z,2.60
2022-11-06T20:47:03.814Z,2.42
2022-11-06T20:49:30.452Z,2.22
2022-11-06T20:52:14.341Z,2.10
2022-11-06T20:54:46.699Z,2.53
2022-11-06T20:57:14.799Z,2.28
2022-11-06T20:59:44.215Z,2.40
2022-11-06T21:02:14.088Z,2.30
2022-11-06T21:04:41.123Z,2.10
2022-11-06T21:07:07.899Z,2.00
2022-11-06T21:09:34.650Z,2.10
2022-11-06T21:12:01.356Z,2.15
2022-11-06T21:14:28.135Z,2.22
2022-11-06T21:16:56.543Z,2.20
2022-11-06T21:19:23.917Z,1.88
2022-11-06T21:21:51.247Z,2.67
2022-11-06T21:24:17.909Z,2.92
2022-11-06T21:26:44.780Z,2.20
2022-11-06T21:29:13.222Z,2.00
2022-11-06T21:31:45.647Z,2.08
2022-11-06T21:34:14.121Z,2.30
2022-11-06T21:36:43.701Z,2.22
2022-11-06T21:39:16.327Z,2.17
2022-11-06T21:41:45.388Z,2.30
2022-11-06T21:44:16.923Z,1.92
2022-11-06T21:46:45.543Z,2.08
2022-11-06T21:49:13.574Z,2.45
2022-11-06T21:51:40.546Z,2.35
2022-11-06T21:54:25.537Z,1.95
2022-11-06T21:56:53.484Z,2.00
2022-11-06T21:59:25.016Z,2.17
2022-11-06T22:01:52.225Z,2.03
2022-11-06T22:04:19.069Z,1.92
2022-11-06T22:06:48.105Z,2.10
2022-11-06T22:09:14.990Z,1.98
2022-11-06T22:11:43.722Z,2.40
2022-11-06T22:14:15.270Z,2.15
2022-11-06T22:16:43.625Z,2.30
2022-11-06T22:19:11.044Z,2.25
2022-11-06T22:21:39.746Z,1.75
2022-11-06T22:24:07.499Z,1.63
2022-11-06T22:26:35.262Z,2.05
2022-11-06T22:29:07.462Z,2.10
2022-11-06T22:31:34.489Z,1.83
2022-11-06T22:34:01.354Z,2.17
2022-11-06T22:36:28.096Z,1.70
2022-11-06T22:38:54.827Z,2.03
2022-11-06T22:41:23.679Z,2.15
2022-11-06T22:43:51.343Z,2.17
2022-11-06T22:46:21.794Z,2.30
2022-11-06T22:48:49.532Z,2.20
2022-11-06T22:51:19.854Z,1.73
2022-11-06T22:53:47.007Z,2.30
2022-11-06T22:56:13.981Z,2.00
2022-11-06T22:58:41.641Z,2.10
2022-11-06T23:01:10.895Z,2.05
2022-11-06T23:03:38.128Z,2.15
2022-11-06T23:06:07.723Z,2.20
2022-11-06T23:08:41.593Z,1.90
2022-11-06T23:11:11.355Z,2.28
2022-11-06T23:13:38.777Z,2.25
2022-11-06T23:16:11.181Z,1.90
2022-11-06T23:18:38.300Z,2.90
2022-11-06T23:21:15.589Z,1.77
2022-11-06T23:23:43.191Z,2.22
2022-11-06T23:26:20.970Z,1.80
2022-11-06T23:28:47.668Z,1.90
2022-11-06T23:31:15.652Z,2.30
2022-11-06T23:33:44.079Z,2.92
2022-11-06T23:36:12.958Z,1.90
2022-11-06T23:38:39.886Z,1.85
2022-11-06T23:41:29.634Z,2.05
2022-11-06T23:43:56.803Z,2.22
2022-11-06T23:46:31.864Z,2.58
2022-11-06T23:48:58.800Z,2.58
2022-11-06T23:51:26.002Z,1.92
2022-11-06T23:53:52.782Z,2.25
2022-11-06T23:56:19.246Z,2.25
2022-11-06T23:58:45.788Z,2.08
